createdAt,value
2023-04-17T00:00:38.528Z,958.16
2023-04-17T00:01:40.489Z,958.15
2023-04-17T00:02:42.630Z,958.17
2023-04-17T00:04:47.601Z,958.15
2023-04-17T00:05:49.490Z,958.19
2023-04-17T00:06:51.493Z,958.13
2023-04-17T00:07:53.487Z,958.12
2023-04-17T00:08:55.520Z,958.11
2023-04-17T00:09:59.490Z,958.12
2023-04-17T00:11:08.010Z,958.12
2023-04-17T00:12:03.499Z,958.13
2023-04-17T00:13:05.492Z,958.14
2023-04-17T00:14:07.490Z,958.15
2023-04-17T00:15:09.485Z,958.13
2023-04-17T00:16:11.534Z,958.12
2023-04-17T00:17:13.521Z,958.14
2023-04-17T00:18:15.499Z,958.16
2023-04-17T00:19:17.520Z,958.13
2023-04-17T00:20:19.535Z,958.13
2023-04-17T00:21:21.512Z,958.14
2023-04-17T00:22:23.516Z,958.14
2023-04-17T00:23:25.499Z,958.14
2023-04-17T00:24:27.502Z,958.12
2023-04-17T00:25:29.503Z,958.11
2023-04-17T00:26:31.503Z,958.13
2023-04-17T00:27:33.502Z,958.12
2023-04-17T00:28:35.506Z,958.13
2023-04-17T00:29:37.503Z,958.13
2023-04-17T00:30:39.512Z,958.12
2023-04-17T00:31:41.531Z,958.13
2023-04-17T00:32:43.548Z,958.1
2023-04-17T00:33:46.707Z,958.08
2023-04-17T00:34:48.511Z,958.09
2023-04-17T00:35:51.509Z,958.08
2023-04-17T00:36:53.507Z,958.08
2023-04-17T00:37:55.532Z,958.06
2023-04-17T00:38:58.507Z,958.08
2023-04-17T00:40:00.529Z,958.06
2023-04-17T00:41:02.520Z,958.07
2023-04-17T00:42:04.531Z,958.09
2023-04-17T00:43:06.520Z,958.07
2023-04-17T00:44:08.515Z,958.09
2023-04-17T00:45:10.523Z,958.09
2023-04-17T00:46:12.618Z,958.07
2023-04-17T00:47:14.534Z,958.05
2023-04-17T00:48:16.523Z,958.07
2023-04-17T00:49:18.522Z,958.07
2023-04-17T00:50:20.566Z,958.09
2023-04-17T00:51:23.533Z,958.08
2023-04-17T00:52:25.529Z,958.03
2023-04-17T00:53:27.528Z,958.09
2023-04-17T00:54:29.527Z,958.06
2023-04-17T00:55:31.564Z,958.1
2023-04-17T00:56:33.521Z,958.06
2023-04-17T00:57:35.529Z,958.08
2023-04-17T00:58:37.548Z,958.07
2023-04-17T01:00:13.555Z,958.01
2023-04-17T01:03:18.042Z,958.06
2023-04-17T01:04:19.960Z,958.09
2023-04-17T01:05:21.876Z,958.06
2023-04-17T01:06:23.884Z,958.07
2023-04-17T01:07:25.888Z,958.04
2023-04-17T01:08:27.875Z,958.06
2023-04-17T01:09:29.877Z,958.05
2023-04-17T01:10:31.920Z,958.04
2023-04-17T01:11:34.899Z,958.03
2023-04-17T01:12:36.876Z,958.04
2023-04-17T01:13:38.881Z,958.01
2023-04-17T01:14:40.877Z,958.02
2023-04-17T01:15:42.888Z,958.01
2023-04-17T01:16:44.901Z,958.01
2023-04-17T01:17:47.902Z,958.01
2023-04-17T01:18:49.892Z,958.01
2023-04-17T01:19:51.876Z,958
2023-04-17T01:20:53.870Z,958.02
2023-04-17T01:21:55.906Z,957.98
2023-04-17T01:22:58.890Z,957.98
2023-04-17T01:24:00.889Z,957.97
2023-04-17T01:25:02.906Z,957.99
2023-04-17T01:26:05.886Z,957.99
2023-04-17T01:27:07.882Z,957.96
2023-04-17T01:28:09.886Z,958.01
2023-04-17T01:29:12.121Z,957.98
2023-04-17T01:30:13.929Z,957.97
2023-04-17T01:31:15.955Z,957.99
2023-04-17T01:32:17.893Z,957.97
2023-04-17T01:33:19.889Z,957.98
2023-04-17T01:34:21.896Z,957.97
2023-04-17T01:35:24.894Z,957.98
2023-04-17T01:36:26.901Z,958.01
2023-04-17T01:37:28.894Z,957.97
2023-04-17T01:38:30.911Z,958.01
2023-04-17T01:39:32.898Z,958.03
2023-04-17T01:40:34.892Z,958.02
2023-04-17T01:41:36.906Z,958.03
2023-04-17T01:42:38.900Z,958.04
2023-04-17T01:43:40.910Z,958.02
2023-04-17T01:44:42.898Z,958.01
2023-04-17T01:45:44.944Z,958.03
2023-04-17T01:46:47.901Z,958.01
2023-04-17T01:47:49.964Z,958.02
2023-04-17T01:48:51.904Z,958.03
2023-04-17T01:49:55.922Z,958.05
2023-04-17T01:50:58.931Z,958.06
2023-04-17T01:52:00.906Z,958.04
2023-04-17T01:53:02.908Z,958.04
2023-04-17T01:54:04.919Z,958.05
2023-04-17T01:55:06.911Z,958.03
2023-04-17T01:56:08.903Z,958.05
2023-04-17T01:57:10.902Z,958.05
2023-04-17T01:58:12.921Z,958.03
2023-04-17T01:59:14.907Z,958.06
2023-04-17T02:00:16.928Z,958.03
2023-04-17T02:01:18.942Z,958.03
2023-04-17T02:02:21.048Z,958.04
2023-04-17T02:03:23.240Z,958.08
2023-04-17T02:04:25.091Z,958.04
2023-04-17T02:05:26.924Z,958.05
2023-04-17T02:06:29.925Z,958.04
2023-04-17T02:07:31.915Z,958.05
2023-04-17T02:08:33.913Z,958.03
2023-04-17T02:09:35.927Z,958.06
2023-04-17T02:10:38.916Z,958.07
2023-04-17T02:11:40.916Z,958.05
2023-04-17T02:12:42.916Z,958.05
2023-04-17T02:13:44.923Z,958.06
2023-04-17T02:14:46.919Z,958.05
2023-04-17T02:15:48.976Z,958.04
2023-04-17T02:16:50.922Z,958.02
2023-04-17T02:17:53.102Z,958.08
2023-04-17T02:18:55.929Z,958.06
2023-04-17T02:19:59.924Z,958.04
2023-04-17T02:21:01.944Z,958.07
2023-04-17T02:22:03.920Z,958.13
2023-04-17T02:23:05.928Z,958.1
2023-04-17T02:24:07.929Z,958.07
2023-04-17T02:25:09.942Z,958.08
2023-04-17T02:26:11.932Z,958.08
2023-04-17T02:27:13.933Z,958.1
2023-04-17T02:28:15.934Z,958.08
2023-04-17T02:29:18.011Z,958.08
2023-04-17T02:30:19.924Z,958.13
2023-04-17T02:31:21.952Z,958.13
2023-04-17T02:32:24.007Z,958.13
2023-04-17T02:33:25.931Z,958.14
2023-04-17T02:34:27.942Z,958.15
2023-04-17T02:35:29.933Z,958.14
2023-04-17T02:36:31.932Z,958.15
2023-04-17T02:37:34.934Z,958.17
2023-04-17T02:38:36.932Z,958.13
2023-04-17T02:39:38.951Z,958.17
2023-04-17T02:40:40.965Z,958.15
2023-04-17T02:41:42.942Z,958.15
2023-04-17T02:42:44.947Z,958.15
2023-04-17T02:43:46.976Z,958.15
2023-04-17T02:44:48.934Z,958.12
2023-04-17T02:45:50.949Z,958.14
2023-04-17T02:46:52.974Z,958.13
2023-04-17T02:47:55.997Z,958.12
2023-04-17T02:48:59.939Z,958.11
2023-04-17T02:50:01.975Z,958.13
2023-04-17T02:51:03.957Z,958.1
2023-04-17T02:52:05.954Z,958.07
2023-04-17T02:53:07.964Z,958.1
2023-04-17T02:54:09.954Z,958.11
2023-04-17T02:55:11.955Z,958.1
2023-04-17T02:56:13.955Z,958.11
2023-04-17T02:57:15.950Z,958.12
2023-04-17T02:58:17.955Z,958.11
2023-04-17T02:59:20.957Z,958.09
2023-04-17T03:00:22.981Z,958.1
2023-04-17T03:01:24.978Z,958.13
2023-04-17T03:02:27.155Z,958.12
2023-04-17T03:03:29.112Z,958.12
2023-04-17T03:04:31.954Z,958.14
2023-04-17T03:05:33.972Z,958.13
2023-04-17T03:06:36.991Z,958.1
2023-04-17T03:07:38.967Z,958.11
2023-04-17T03:08:40.966Z,958.12
2023-04-17T03:09:42.971Z,958.09
2023-04-17T03:10:44.966Z,958.11
2023-04-17T03:11:47.973Z,958.12
2023-04-17T03:12:49.964Z,958.14
2023-04-17T03:13:51.974Z,958.14
2023-04-17T03:15:55.977Z,958.18
2023-04-17T03:19:02.974Z,958.19
2023-04-17T03:20:04.981Z,958.19
2023-04-17T03:21:07.999Z,958.22
2023-04-17T03:22:13.301Z,958.21
2023-04-17T03:23:13.018Z,958.22
2023-04-17T03:24:14.977Z,958.24
2023-04-17T03:25:17.015Z,958.26
2023-04-17T03:26:18.983Z,958.24
2023-04-17T03:27:20.975Z,958.25
2023-04-17T03:28:22.983Z,958.24
2023-04-17T03:29:24.973Z,958.23
2023-04-17T03:30:27.000Z,958.27
2023-04-17T03:31:29.005Z,958.3
2023-04-17T03:32:31.009Z,958.26
2023-04-17T03:33:34.024Z,958.27
2023-04-17T03:34:35.986Z,958.32
2023-04-17T03:35:37.980Z,958.34
2023-04-17T03:36:39.980Z,958.37
2023-04-17T03:37:41.989Z,958.31
2023-04-17T03:38:43.983Z,958.38
2023-04-17T03:39:45.983Z,958.34
2023-04-17T03:40:47.988Z,958.34
2023-04-17T03:41:50.991Z,958.34
2023-04-17T03:42:53.022Z,958.35
2023-04-17T03:43:56.035Z,958.32
2023-04-17T03:44:59.003Z,958.36
2023-04-17T03:46:01.039Z,958.36
2023-04-17T03:47:03.006Z,958.36
2023-04-17T03:48:05.040Z,958.36
2023-04-17T03:49:06.996Z,958.35
2023-04-17T03:50:09.009Z,958.35
2023-04-17T03:51:10.995Z,958.37
2023-04-17T03:52:13.091Z,958.35
2023-04-17T03:53:15.005Z,958.34
2023-04-17T03:54:16.999Z,958.35
2023-04-17T03:55:19.022Z,958.37
2023-04-17T03:56:21.001Z,958.34
2023-04-17T03:57:23.006Z,958.35
2023-04-17T03:58:24.996Z,958.33
2023-04-17T03:59:27.028Z,958.35
2023-04-17T04:00:29.003Z,958.36
2023-04-17T04:01:31.018Z,958.38
2023-04-17T04:02:33.079Z,958.37
2023-04-17T04:03:35.179Z,958.36
2023-04-17T04:04:38.169Z,958.36
2023-04-17T04:05:40.004Z,958.38
2023-04-17T04:06:42.005Z,958.38
2023-04-17T04:07:44.010Z,958.37
2023-04-17T04:08:45.997Z,958.4
2023-04-17T04:09:59.914Z,958.35
2023-04-17T04:10:50.021Z,958.4
2023-04-17T04:11:52.015Z,958.42
2023-04-17T04:12:54.000Z,958.42
2023-04-17T04:13:56.019Z,958.41
2023-04-17T04:14:59.026Z,958.42
2023-04-17T04:16:01.227Z,958.44
2023-04-17T04:17:03.003Z,958.43
2023-04-17T04:18:05.068Z,958.44
2023-04-17T04:19:08.009Z,958.44
2023-04-17T04:20:10.010Z,958.46
2023-04-17T04:21:12.013Z,958.47
2023-04-17T04:22:14.011Z,958.47
2023-04-17T04:23:16.004Z,958.5
2023-04-17T04:24:18.009Z,958.5
2023-04-17T04:26:22.012Z,958.48
2023-04-17T04:27:25.011Z,958.49
2023-04-17T04:28:27.020Z,958.51
2023-04-17T04:29:29.008Z,958.53
2023-04-17T04:30:31.011Z,958.53
2023-04-17T04:31:33.046Z,958.54
2023-04-17T04:32:35.006Z,958.53
2023-04-17T04:33:37.069Z,958.56
2023-04-17T04:34:39.017Z,958.53
2023-04-17T04:35:41.028Z,958.56
2023-04-17T04:36:43.018Z,958.55
2023-04-17T04:37:45.018Z,958.59
2023-04-17T04:38:47.036Z,958.58
2023-04-17T04:39:49.012Z,958.57
2023-04-17T04:40:51.021Z,958.57
2023-04-17T04:41:53.036Z,958.59
2023-04-17T04:42:56.061Z,958.55
2023-04-17T04:45:01.027Z,958.54
2023-04-17T04:46:03.035Z,958.56
2023-04-17T04:47:17.863Z,958.6
2023-04-17T04:48:07.110Z,958.61
2023-04-17T04:49:09.049Z,958.6
2023-04-17T04:50:11.027Z,958.59
2023-04-17T04:51:13.027Z,958.64
2023-04-17T04:52:15.034Z,958.63
2023-04-17T04:53:17.050Z,958.67
2023-04-17T04:54:19.048Z,958.67
2023-04-17T04:55:21.032Z,958.68
2023-04-17T04:56:24.035Z,958.7
2023-04-17T04:57:26.044Z,958.68
2023-04-17T04:58:28.034Z,958.71
2023-04-17T04:59:31.051Z,958.72
2023-04-17T05:00:33.033Z,958.72
2023-04-17T05:01:35.099Z,958.68
2023-04-17T05:02:38.179Z,958.68
2023-04-17T05:03:40.294Z,958.69
2023-04-17T05:04:42.123Z,958.7
2023-04-17T05:05:44.048Z,958.7
2023-04-17T05:06:46.040Z,958.72
2023-04-17T05:08:50.044Z,958.72
2023-04-17T05:09:52.048Z,958.73
2023-04-17T05:10:54.054Z,958.71
2023-04-17T05:11:56.104Z,958.75
2023-04-17T05:13:00.054Z,958.77
2023-04-17T05:14:02.053Z,958.75
2023-04-17T05:15:04.052Z,958.77
2023-04-17T05:16:06.072Z,958.79
2023-04-17T05:17:08.049Z,958.79
2023-04-17T05:18:10.049Z,958.81
2023-04-17T05:19:12.275Z,958.82
2023-04-17T05:20:14.066Z,958.8
2023-04-17T05:21:16.073Z,958.82
2023-04-17T05:22:18.061Z,958.81
2023-04-17T05:23:20.070Z,958.85
2023-04-17T05:24:22.075Z,958.8
2023-04-17T05:25:24.074Z,958.84
2023-04-17T05:27:13.756Z,958.82
2023-04-17T05:28:15.557Z,958.81
2023-04-17T05:29:13.920Z,958.84
2023-04-17T05:30:13.746Z,958.82
2023-04-17T05:31:13.806Z,958.88
2023-04-17T05:32:13.749Z,958.89
2023-04-17T05:33:14.828Z,958.87
2023-04-17T05:34:13.746Z,958.84
2023-04-17T05:35:13.753Z,958.83
2023-04-17T05:36:13.747Z,958.86
2023-04-17T05:37:13.754Z,958.86
2023-04-17T05:38:51.111Z,958.91
2023-04-17T05:40:56.100Z,958.89
2023-04-17T05:41:59.089Z,958.92
2023-04-17T05:43:01.092Z,958.93
2023-04-17T05:44:17.909Z,958.91
2023-04-17T05:45:05.088Z,958.93
2023-04-17T05:46:07.155Z,958.9
2023-04-17T05:47:09.071Z,958.89
2023-04-17T05:48:11.088Z,958.93
2023-04-17T05:54:24.145Z,958.91
2023-04-17T05:56:28.064Z,958.95
2023-04-17T05:58:32.098Z,958.94
2023-04-17T06:01:51.500Z,958.92
2023-04-17T06:03:14.013Z,958.94
2023-04-17T06:04:14.608Z,958.94
2023-04-17T06:05:13.901Z,958.93
2023-04-17T06:07:13.779Z,958.94
2023-04-17T06:08:14.095Z,958.9
2023-04-17T06:09:15.921Z,958.95
2023-04-17T06:10:17.936Z,958.92
2023-04-17T06:12:21.930Z,958.91
2023-04-17T06:13:23.929Z,958.92
2023-04-17T06:14:25.935Z,958.91
2023-04-17T06:15:28.028Z,958.92
2023-04-17T06:16:29.962Z,958.92
2023-04-17T06:17:32.024Z,958.88
2023-04-17T06:18:33.939Z,958.9
2023-04-17T06:20:39.868Z,958.93
2023-04-17T06:21:39.963Z,958.92
2023-04-17T06:23:13.792Z,958.9
2023-04-17T06:24:13.781Z,958.95
2023-04-17T06:25:13.780Z,958.98
2023-04-17T06:26:13.823Z,958.96
2023-04-17T06:27:13.784Z,958.97
2023-04-17T06:28:13.789Z,958.99
2023-04-17T06:29:13.928Z,959.01
2023-04-17T06:30:13.803Z,958.97
2023-04-17T06:31:14.200Z,958.99
2023-04-17T06:32:13.790Z,959.03
2023-04-17T06:33:13.788Z,958.99
2023-04-17T06:34:13.794Z,958.99
2023-04-17T06:35:13.784Z,959.02
2023-04-17T06:36:13.831Z,959.02
2023-04-17T06:37:13.804Z,959.04
2023-04-17T06:39:16.959Z,959.03
2023-04-17T06:40:18.952Z,959.05
2023-04-17T06:41:22.000Z,959.06
2023-04-17T06:42:24.000Z,959.06
2023-04-17T06:43:25.963Z,959.11
2023-04-17T06:44:29.059Z,959.07
2023-04-17T06:45:30.992Z,959.08
2023-04-17T06:46:33.036Z,959.09
2023-04-17T06:48:38.943Z,959.06
2023-04-17T06:49:40.946Z,959.07
2023-04-17T06:50:43.947Z,959.11
2023-04-17T06:51:46.019Z,959.09
2023-04-17T06:54:13.850Z,959.1
2023-04-17T06:55:13.802Z,959.08
2023-04-17T06:56:13.818Z,959.09
2023-04-17T06:57:13.835Z,959.1
2023-04-17T06:58:13.801Z,959.09
2023-04-17T06:59:14.077Z,959.13
2023-04-17T07:00:13.847Z,959.17
2023-04-17T07:01:13.915Z,959.16
2023-04-17T07:02:14.016Z,959.16
2023-04-17T07:03:14.073Z,959.14
2023-04-17T07:04:13.977Z,959.14
2023-04-17T07:05:14.235Z,959.1
2023-04-17T07:08:20.952Z,959.13
2023-04-17T07:09:22.975Z,959.16
2023-04-17T07:10:25.013Z,959.19
2023-04-17T07:11:26.959Z,959.17
2023-04-17T07:12:28.971Z,959.15
2023-04-17T07:13:30.993Z,959.19
2023-04-17T07:15:35.125Z,959.23
2023-04-17T07:16:37.059Z,959.2
2023-04-17T07:17:38.991Z,959.17
2023-04-17T07:18:40.968Z,959.2
2023-04-17T07:19:42.970Z,959.21
2023-04-17T07:20:45.013Z,959.23
2023-04-17T07:21:46.974Z,959.22
2023-04-17T07:22:48.971Z,959.26
2023-04-17T07:23:50.961Z,959.24
2023-04-17T07:24:53.008Z,959.24
2023-04-17T07:25:55.012Z,959.25
2023-04-17T07:26:56.974Z,959.27
2023-04-17T07:27:58.967Z,959.29
2023-04-17T07:29:01.966Z,959.29
2023-04-17T07:30:04.032Z,959.34
2023-04-17T07:31:06.042Z,959.33
2023-04-17T07:32:09.965Z,959.32
2023-04-17T07:33:11.966Z,959.35
2023-04-17T07:35:18.338Z,959.34
2023-04-17T07:36:19.971Z,959.32
2023-04-17T07:37:21.977Z,959.35
2023-04-17T07:38:23.976Z,959.35
2023-04-17T07:39:25.972Z,959.36
2023-04-17T07:40:28.019Z,959.36
2023-04-17T07:41:29.977Z,959.37
2023-04-17T07:42:32.058Z,959.34
2023-04-17T07:43:33.979Z,959.34
2023-04-17T07:44:35.981Z,959.36
2023-04-17T07:45:39.715Z,959.38
2023-04-17T07:46:41.041Z,959.39
2023-04-17T07:47:43.065Z,959.41
2023-04-17T07:49:46.981Z,959.41
2023-04-17T07:51:13.894Z,959.42
2023-04-17T07:52:13.860Z,959.41
2023-04-17T07:53:13.851Z,959.43
2023-04-17T07:54:13.845Z,959.46
2023-04-17T07:55:13.920Z,959.47
2023-04-17T07:56:13.844Z,959.46
2023-04-17T07:57:13.856Z,959.46
2023-04-17T08:00:13.962Z,959.47
2023-04-17T08:01:14.202Z,959.47
2023-04-17T08:02:19.050Z,959.53
2023-04-17T08:03:20.273Z,959.54
2023-04-17T08:04:22.191Z,959.5
2023-04-17T08:06:13.972Z,959.55
2023-04-17T08:07:13.923Z,959.54
2023-04-17T08:08:13.854Z,959.53
2023-04-17T08:09:14.208Z,959.54
2023-04-17T08:10:13.841Z,959.55
2023-04-17T08:11:13.903Z,959.56
2023-04-17T08:12:13.862Z,959.57
2023-04-17T08:13:13.860Z,959.6
2023-04-17T08:14:13.877Z,959.59
2023-04-17T08:15:13.902Z,959.61
2023-04-17T08:16:14.711Z,959.61
2023-04-17T08:17:13.882Z,959.58
2023-04-17T08:18:13.872Z,959.6
2023-04-17T08:19:14.100Z,959.59
2023-04-17T08:20:13.881Z,959.55
2023-04-17T08:21:13.871Z,959.64
2023-04-17T08:22:13.907Z,959.65
2023-04-17T08:23:14.477Z,959.67
2023-04-17T08:24:13.924Z,959.66
2023-04-17T08:25:13.868Z,959.64
2023-04-17T08:26:13.880Z,959.69
2023-04-17T08:27:13.869Z,959.68
2023-04-17T08:28:13.876Z,959.68
2023-04-17T08:29:15.328Z,959.72
2023-04-17T08:30:19.169Z,959.73
2023-04-17T08:31:19.037Z,959.72
2023-04-17T08:32:21.038Z,959.73
2023-04-17T08:34:26.065Z,959.76
2023-04-17T08:35:28.022Z,959.77
2023-04-17T08:36:30.016Z,959.73
2023-04-17T08:37:32.022Z,959.75
2023-04-17T08:38:34.027Z,959.74
2023-04-17T08:39:36.113Z,959.75
2023-04-17T08:41:40.015Z,959.72
2023-04-17T08:42:42.039Z,959.75
2023-04-17T08:43:44.024Z,959.75
2023-04-17T08:44:46.117Z,959.76
2023-04-17T08:46:00.239Z,959.78
2023-04-17T08:46:50.041Z,959.76
2023-04-17T08:47:52.060Z,959.75
2023-04-17T08:48:54.027Z,959.76
2023-04-17T08:50:13.964Z,959.74
2023-04-17T08:51:13.896Z,959.74
2023-04-17T08:52:13.888Z,959.78
2023-04-17T08:53:13.897Z,959.78
2023-04-17T08:55:13.974Z,959.78
2023-04-17T08:56:13.896Z,959.78
2023-04-17T08:57:13.843Z,959.77
2023-04-17T08:58:15.035Z,959.77
2023-04-17T08:59:17.052Z,959.81
2023-04-17T09:00:19.093Z,959.8
2023-04-17T09:01:21.111Z,959.82
2023-04-17T09:02:25.338Z,959.81
2023-04-17T09:03:25.137Z,959.85
2023-04-17T09:05:30.052Z,959.84
2023-04-17T09:07:13.933Z,959.81
2023-04-17T09:08:13.912Z,959.85
2023-04-17T09:10:13.936Z,959.81
2023-04-17T09:11:15.601Z,959.83
2023-04-17T09:12:14.006Z,959.83
2023-04-17T09:14:13.936Z,959.84
2023-04-17T09:15:13.946Z,959.83
2023-04-17T09:16:13.919Z,959.85
2023-04-17T09:17:13.953Z,959.86
2023-04-17T09:18:13.979Z,959.87
2023-04-17T09:19:14.010Z,959.86
2023-04-17T09:20:13.916Z,959.85
2023-04-17T09:21:13.942Z,959.88
2023-04-17T09:22:13.962Z,959.88
2023-04-17T09:23:13.909Z,959.9
2023-04-17T09:24:13.924Z,959.92
2023-04-17T09:25:13.909Z,959.93
2023-04-17T09:26:13.910Z,959.9
2023-04-17T09:27:15.102Z,959.93
2023-04-17T09:28:30.146Z,959.92
2023-04-17T09:29:19.106Z,959.93
2023-04-17T09:30:22.142Z,959.94
2023-04-17T09:31:24.159Z,959.94
2023-04-17T09:32:27.116Z,959.95
2023-04-17T09:33:29.064Z,959.96
2023-04-17T09:34:31.070Z,959.95
2023-04-17T09:35:33.107Z,959.94
2023-04-17T09:36:35.086Z,959.98
2023-04-17T09:37:37.076Z,959.96
2023-04-17T09:38:39.118Z,959.97
2023-04-17T09:39:54.080Z,959.99
2023-04-17T09:40:43.112Z,960
2023-04-17T09:41:45.070Z,960.04
2023-04-17T09:42:47.092Z,960.05
2023-04-17T09:43:50.117Z,960.02
2023-04-17T09:44:53.072Z,960.03
2023-04-17T09:45:55.117Z,960.05
2023-04-17T09:46:57.115Z,960.06
2023-04-17T09:47:59.166Z,960.05
2023-04-17T09:49:01.103Z,960.07
2023-04-17T09:50:03.115Z,960.09
2023-04-17T09:51:06.156Z,960.08
2023-04-17T09:52:13.935Z,960.08
2023-04-17T09:53:13.946Z,960.1
2023-04-17T09:54:14.155Z,960.13
2023-04-17T09:55:15.088Z,960.12
2023-04-17T09:56:17.122Z,960.09
2023-04-17T09:57:19.131Z,960.07
2023-04-17T09:58:22.086Z,960.1
2023-04-17T09:59:24.086Z,960.1
2023-04-17T10:00:26.159Z,960.08
2023-04-17T10:01:28.190Z,960.12
2023-04-17T10:02:30.247Z,960.12
2023-04-17T10:03:33.618Z,960.15
2023-04-17T10:04:35.148Z,960.15
2023-04-17T10:06:13.960Z,960.15
2023-04-17T10:07:13.961Z,960.14
2023-04-17T10:08:13.938Z,960.15
2023-04-17T10:09:13.994Z,960.18
2023-04-17T10:10:13.957Z,960.19
2023-04-17T10:11:13.954Z,960.16
2023-04-17T10:12:13.939Z,960.17
2023-04-17T10:13:13.945Z,960.17
2023-04-17T10:14:14.425Z,960.18
2023-04-17T10:15:13.942Z,960.15
2023-04-17T10:16:14.064Z,960.16
2023-04-17T10:17:13.949Z,960.17
2023-04-17T10:18:14.011Z,960.18
2023-04-17T10:19:14.002Z,960.14
2023-04-17T10:20:13.959Z,960.14
2023-04-17T10:21:13.953Z,960.11
2023-04-17T10:22:13.948Z,960.15
2023-04-17T10:23:14.356Z,960.12
2023-04-17T10:24:18.145Z,960.12
2023-04-17T10:25:20.129Z,960.1
2023-04-17T10:26:22.097Z,960.11
2023-04-17T10:27:24.114Z,960.1
2023-04-17T10:28:26.104Z,960.12
2023-04-17T10:29:28.147Z,960.13
2023-04-17T10:30:30.151Z,960.11
2023-04-17T10:31:32.202Z,960.12
2023-04-17T10:32:34.275Z,960.12
2023-04-17T10:33:36.288Z,960.16
2023-04-17T10:34:38.155Z,960.13
2023-04-17T10:35:40.149Z,960.16
2023-04-17T10:36:42.100Z,960.14
2023-04-17T10:37:44.119Z,960.15
2023-04-17T10:38:46.120Z,960.13
2023-04-17T10:39:48.128Z,960.11
2023-04-17T10:40:50.165Z,960.12
2023-04-17T10:41:52.110Z,960.11
2023-04-17T10:42:54.132Z,960.11
2023-04-17T10:43:56.109Z,960.1
2023-04-17T10:44:58.105Z,960.08
2023-04-17T10:46:00.363Z,960.14
2023-04-17T10:47:02.117Z,960.11
2023-04-17T10:48:04.169Z,960.11
2023-04-17T10:49:06.170Z,960.11
2023-04-17T10:50:09.123Z,960.07
2023-04-17T10:51:11.165Z,960.09
2023-04-17T10:52:13.114Z,960.08
2023-04-17T10:53:15.222Z,960.08
2023-04-17T10:54:17.175Z,960.11
2023-04-17T10:55:19.121Z,960.08
2023-04-17T10:56:21.126Z,960.07
2023-04-17T10:57:24.119Z,960.06
2023-04-17T10:58:31.574Z,960.09
2023-04-17T10:59:28.190Z,960.06
2023-04-17T11:00:30.123Z,960.09
2023-04-17T11:01:32.248Z,960.07
2023-04-17T11:02:34.282Z,960.08
2023-04-17T11:03:36.289Z,960.08
2023-04-17T11:04:38.229Z,960.07
2023-04-17T11:05:40.233Z,960.08
2023-04-17T11:06:42.119Z,960.1
2023-04-17T11:07:44.143Z,960.07
2023-04-17T11:08:46.141Z,960.07
2023-04-17T11:09:48.126Z,960.07
2023-04-17T11:10:51.185Z,960.05
2023-04-17T11:11:53.157Z,960.07
2023-04-17T11:12:56.132Z,960.04
2023-04-17T11:13:58.179Z,960.05
2023-04-17T11:15:00.191Z,960.07
2023-04-17T11:16:03.140Z,960.06
2023-04-17T11:17:06.235Z,960.03
2023-04-17T11:18:09.178Z,960.03
2023-04-17T11:19:11.398Z,960.07
2023-04-17T11:20:13.188Z,960.06
2023-04-17T11:21:15.134Z,960
2023-04-17T11:22:17.135Z,960.03
2023-04-17T11:23:19.142Z,960.03
2023-04-17T11:24:21.232Z,960.03
2023-04-17T11:25:24.178Z,960
2023-04-17T11:26:26.148Z,960.03
2023-04-17T11:27:28.152Z,960.02
2023-04-17T11:28:30.151Z,960
2023-04-17T11:29:32.233Z,960
2023-04-17T11:30:34.200Z,960.01
2023-04-17T11:31:36.253Z,960.01
2023-04-17T11:32:38.208Z,960.04
2023-04-17T11:33:40.385Z,960.04
2023-04-17T11:34:42.497Z,960.05
2023-04-17T11:35:44.167Z,960.06
2023-04-17T11:36:46.151Z,960.08
2023-04-17T11:37:48.155Z,960.08
2023-04-17T11:38:50.154Z,960.07
2023-04-17T11:39:52.147Z,960.1
2023-04-17T11:40:54.197Z,960.06
2023-04-17T11:43:26.809Z,960.08
2023-04-17T11:44:14.021Z,960.1
2023-04-17T11:45:15.488Z,960.06
2023-04-17T11:46:17.556Z,960.06
2023-04-17T11:47:19.517Z,960.09
2023-04-17T11:48:21.491Z,960.08
2023-04-17T11:49:24.524Z,960.11
2023-04-17T11:50:26.482Z,960.12
2023-04-17T11:51:28.494Z,960.09
2023-04-17T11:52:30.523Z,960.11
2023-04-17T11:53:32.523Z,960.07
2023-04-17T11:54:34.485Z,960.07
2023-04-17T11:55:36.479Z,960.07
2023-04-17T11:56:38.494Z,960.08
2023-04-17T11:57:40.569Z,960.06
2023-04-17T11:58:42.527Z,960.09
2023-04-17T11:59:45.528Z,960.07
2023-04-17T12:00:47.489Z,960.08
2023-04-17T12:01:49.484Z,960.09
2023-04-17T12:02:51.676Z,960.09
2023-04-17T12:03:53.656Z,960.12
2023-04-17T12:04:55.685Z,960.1
2023-04-17T12:05:57.608Z,960.12
2023-04-17T12:06:59.882Z,960.12
2023-04-17T12:08:01.486Z,960.17
2023-04-17T12:09:03.492Z,960.15
2023-04-17T12:10:06.512Z,960.17
2023-04-17T12:11:09.568Z,960.13
2023-04-17T12:12:11.660Z,960.11
2023-04-17T12:13:13.545Z,960.12
2023-04-17T12:14:15.541Z,960.12
2023-04-17T12:15:17.545Z,960.1
2023-04-17T12:16:20.549Z,960.13
2023-04-17T12:17:22.547Z,960.17
2023-04-17T12:18:24.500Z,960.16
2023-04-17T12:19:27.553Z,960.15
2023-04-17T12:20:29.542Z,960.14
2023-04-17T12:21:32.510Z,960.16
2023-04-17T12:22:34.530Z,960.18
2023-04-17T12:23:36.518Z,960.18
2023-04-17T12:24:39.573Z,960.18
2023-04-17T12:25:41.576Z,960.18
2023-04-17T12:26:43.555Z,960.22
2023-04-17T12:27:47.458Z,960.18
2023-04-17T12:28:47.506Z,960.2
2023-04-17T12:29:50.557Z,960.16
2023-04-17T12:30:52.506Z,960.16
2023-04-17T12:33:58.512Z,960.18
2023-04-17T12:35:00.529Z,960.15
2023-04-17T12:36:02.601Z,960.2
2023-04-17T12:37:04.546Z,960.27
2023-04-17T12:38:06.533Z,960.21
2023-04-17T12:39:09.566Z,960.24
2023-04-17T12:41:13.517Z,960.26
2023-04-17T12:42:15.514Z,960.25
2023-04-17T12:43:17.520Z,960.2
2023-04-17T12:45:21.561Z,960.22
2023-04-17T12:46:23.571Z,960.2
2023-04-17T12:47:25.521Z,960.21
2023-04-17T12:48:27.525Z,960.19
2023-04-17T12:49:29.557Z,960.19
2023-04-17T12:50:32.598Z,960.15
2023-04-17T12:51:34.573Z,960.17
2023-04-17T12:52:36.553Z,960.18
2023-04-17T12:53:38.535Z,960.18
2023-04-17T12:55:14.111Z,960.2
2023-04-17T12:56:14.082Z,960.15
2023-04-17T12:57:14.061Z,960.16
2023-04-17T12:58:14.068Z,960.18
2023-04-17T12:59:14.063Z,960.17
2023-04-17T13:00:14.128Z,960.17
2023-04-17T13:01:14.210Z,960.18
2023-04-17T13:03:14.152Z,960.2
2023-04-17T13:04:14.818Z,960.2
2023-04-17T13:06:14.070Z,960.2
2023-04-17T13:07:14.137Z,960.2
2023-04-17T13:08:14.074Z,960.22
2023-04-17T13:09:14.211Z,960.26
2023-04-17T13:10:15.562Z,960.19
2023-04-17T13:11:18.567Z,960.2
2023-04-17T13:13:22.533Z,960.2
2023-04-17T13:14:24.533Z,960.2
2023-04-17T13:15:26.598Z,960.22
2023-04-17T13:16:28.591Z,960.25
2023-04-17T13:17:30.554Z,960.27
2023-04-17T13:18:32.557Z,960.24
2023-04-17T13:19:35.556Z,960.25
2023-04-17T13:20:37.551Z,960.25
2023-04-17T13:21:39.542Z,960.32
2023-04-17T13:22:42.561Z,960.27
2023-04-17T13:23:44.549Z,960.26
2023-04-17T13:24:46.543Z,960.23
2023-04-17T13:25:48.582Z,960.21
2023-04-17T13:26:50.546Z,960.26
2023-04-17T13:28:14.096Z,960.25
2023-04-17T13:29:15.667Z,960.25
2023-04-17T13:30:14.104Z,960.26
2023-04-17T13:31:14.195Z,960.27
2023-04-17T13:32:14.094Z,960.28
2023-04-17T13:34:06.609Z,960.25
2023-04-17T13:35:14.085Z,960.23
2023-04-17T13:36:14.136Z,960.26
2023-04-17T13:37:14.552Z,960.22
2023-04-17T13:38:16.558Z,960.19
2023-04-17T13:39:19.550Z,960.26
2023-04-17T13:40:21.549Z,960.19
2023-04-17T13:41:23.607Z,960.18
2023-04-17T13:42:25.572Z,960.17
2023-04-17T13:43:42.258Z,960.14
2023-04-17T13:44:31.546Z,960.23
2023-04-17T13:45:33.595Z,960.2
2023-04-17T13:46:35.656Z,960.19
2023-04-17T13:48:39.564Z,960.19
2023-04-17T13:49:54.255Z,960.19